Time;durP1;ratioP1;P1;durP2;ratioP2;P2;SDS_P1;SDS_P2;PMS_P1;PMS_P2;Temp;Humidity;BMP_temperature;BMP_pressure;BME280_temperature;BME280_humidity;BME280_pressure;Samples;Min_cycle;Max_cycle;Signal;HPM_P1;HPM_P2
2021/03/29 00:02:04;;;;;;;11.25;2.60;;;8.20;85.00;;;;;;4947072;28;20086;-84
2021/03/29 00:04:30;;;;;;;10.38;2.55;;;8.20;85.00;;;;;;4941438;28;20036;-85
2021/03/29 00:06:59;;;;;;;9.43;2.67;;;8.10;85.10;;;;;;4951012;28;20039;-85
2021/03/29 00:09:25;;;;;;;10.35;2.63;;;8.10;85.10;;;;;;4952121;28;20027;-85
2021/03/29 00:11:54;;;;;;;12.38;3.47;;;8.10;85.20;;;;;;4933044;29;20035;-85
2021/03/29 00:14:20;;;;;;;13.68;4.18;;;8.10;85.10;;;;;;4949008;28;20475;-85
2021/03/29 00:16:46;;;;;;;13.70;3.08;;;8.10;85.20;;;;;;4933598;29;20071;-84
2021/03/29 00:19:11;;;;;;;7.13;2.28;;;8.10;85.20;;;;;;4934732;29;20081;-85
2021/03/29 00:21:38;;;;;;;8.00;2.70;;;8.00;85.20;;;;;;4932475;28;20042;-84
2021/03/29 00:24:05;;;;;;;12.32;2.72;;;8.10;85.40;;;;;;4952554;28;20042;-84
2021/03/29 00:26:32;;;;;;;11.45;3.55;;;8.00;85.40;;;;;;4931787;28;20032;-84
2021/03/29 00:28:57;;;;;;;10.32;3.08;;;8.00;85.50;;;;;;4934214;29;20098;-85
2021/03/29 00:31:24;;;;;;;10.77;2.95;;;8.00;85.60;;;;;;4930656;28;20114;-84
2021/03/29 00:33:52;;;;;;;13.70;3.28;;;8.00;85.50;;;;;;4944312;29;20036;-85
2021/03/29 00:36:23;;;;;;;10.88;2.88;;;8.00;85.60;;;;;;4932998;28;20463;-85
2021/03/29 00:38:51;;;;;;;9.48;3.10;;;8.10;85.70;;;;;;4933283;29;20051;-85
2021/03/29 00:41:18;;;;;;;13.05;3.50;;;8.00;85.80;;;;;;4936987;28;20035;-85
2021/03/29 00:43:46;;;;;;;15.43;3.75;;;8.00;85.80;;;;;;4944998;28;20110;-86
2021/03/29 00:46:14;;;;;;;12.07;3.92;;;8.10;85.90;;;;;;4943187;29;20034;-86
2021/03/29 00:48:41;;;;;;;10.57;2.95;;;8.10;86.10;;;;;;4933809;28;20588;-85
2021/03/29 00:51:11;;;;;;;9.57;3.20;;;8.10;85.90;;;;;;4949969;28;20464;-85
2021/03/29 00:53:40;;;;;;;13.77;3.13;;;8.10;86.50;;;;;;4936868;29;20058;-85
2021/03/29 00:56:06;;;;;;;10.73;3.03;;;8.10;85.90;;;;;;4944313;28;20050;-86
2021/03/29 00:58:32;;;;;;;14.40;3.35;;;8.10;85.90;;;;;;4955110;28;20082;-85
2021/03/29 01:01:05;;;;;;;13.45;3.88;;;8.20;86.00;;;;;;4936735;29;20151;-85
2021/03/29 01:03:34;;;;;;;10.27;3.58;;;8.10;86.00;;;;;;4945427;28;20480;-85
2021/03/29 01:06:09;;;;;;;17.05;4.15;;;8.10;86.20;;;;;;4943553;28;20045;-85
2021/03/29 01:08:38;;;;;;;14.13;3.58;;;8.10;86.30;;;;;;4950587;28;20483;-85
2021/03/29 01:11:06;;;;;;;16.33;3.53;;;8.10;86.40;;;;;;4935741;28;20062;-85
2021/03/29 01:13:35;;;;;;;13.52;4.00;;;8.10;86.30;;;;;;4936065;29;20050;-85
2021/03/29 01:16:03;;;;;;;15.30;4.18;;;8.10;86.30;;;;;;4945870;29;20047;-85
2021/03/29 01:18:30;;;;;;;12.93;3.83;;;8.10;86.40;;;;;;4949601;28;20031;-85
2021/03/29 01:21:23;;;;;;;12.70;3.75;;;8.10;87.10;;;;;;4933996;29;20053;-85
2021/03/29 01:23:52;;;;;;;18.52;5.00;;;8.20;86.60;;;;;;4948591;28;20060;-85
2021/03/29 01:26:42;;;;;;;12.82;3.58;;;8.20;86.60;;;;;;4937757;29;20024;-84
2021/03/29 01:29:09;;;;;;;13.05;4.18;;;8.20;86.60;;;;;;4938653;28;20134;-85
2021/03/29 01:31:37;;;;;;;15.00;4.78;;;8.20;86.60;;;;;;4935942;29;20019;-85
2021/03/29 01:34:05;;;;;;;13.00;4.07;;;8.20;86.60;;;;;;4932137;29;20107;-85
2021/03/29 01:36:31;;;;;;;12.73;3.92;;;8.20;86.60;;;;;;4939122;28;20031;-85
2021/03/29 01:38:58;;;;;;;11.15;3.72;;;8.10;86.70;;;;;;4935957;28;20053;-85
2021/03/29 01:41:24;;;;;;;11.93;3.58;;;8.20;86.70;;;;;;4950446;28;20031;-85
2021/03/29 01:43:50;;;;;;;9.85;3.47;;;8.30;87.10;;;;;;4935999;29;20035;-85
2021/03/29 01:46:19;;;;;;;10.70;3.55;;;8.30;86.70;;;;;;4948456;28;20032;-85
2021/03/29 01:48:45;;;;;;;11.00;3.78;;;8.30;86.60;;;;;;4935389;28;20119;-85
2021/03/29 01:51:13;;;;;;;11.80;3.97;;;8.30;86.50;;;;;;4948669;28;20031;-85
2021/03/29 01:53:39;;;;;;;15.02;4.20;;;8.40;86.40;;;;;;4932912;29;20043;-85
2021/03/29 01:56:05;;;;;;;13.00;3.70;;;8.40;86.30;;;;;;4947250;28;20042;-85
2021/03/29 01:58:31;;;;;;;9.93;3.35;;;8.40;86.60;;;;;;4935834;29;20392;-85
2021/03/29 02:01:03;;;;;;;11.18;3.95;;;8.40;86.20;;;;;;4950624;28;20023;-85
2021/03/29 02:03:29;;;;;;;15.77;4.35;;;8.50;86.10;;;;;;4952427;28;20043;-85
2021/03/29 02:05:55;;;;;;;16.80;3.88;;;8.50;86.00;;;;;;4947061;28;20062;-85
2021/03/29 02:08:24;;;;;;;14.68;3.67;;;8.50;85.90;;;;;;4933148;29;20038;-85
2021/03/29 02:10:51;;;;;;;9.02;3.17;;;8.50;85.70;;;;;;4949160;28;20131;-85
2021/03/29 02:13:19;;;;;;;15.35;3.60;;;8.50;85.70;;;;;;4950759;28;20036;-85
2021/03/29 02:15:48;;;;;;;16.13;3.88;;;8.50;85.60;;;;;;4933844;29;20114;-85
2021/03/29 02:18:20;;;;;;;16.30;3.28;;;8.50;85.40;;;;;;4949003;29;20502;-85
2021/03/29 02:20:46;;;;;;;11.83;4.20;;;8.50;85.30;;;;;;4931512;29;20019;-85
2021/03/29 02:23:15;;;;;;;13.55;3.75;;;8.50;85.20;;;;;;4948564;28;20314;-85
2021/03/29 02:25:42;;;;;;;12.65;3.45;;;8.50;85.20;;;;;;4932820;29;20455;-84
2021/03/29 02:28:08;;;;;;;12.73;3.33;;;8.50;85.10;;;;;;4930112;29;20126;-85
2021/03/29 02:30:37;;;;;;;19.35;4.78;;;8.50;85.10;;;;;;4934049;28;20025;-84
2021/03/29 02:33:05;;;;;;;15.82;4.20;;;8.50;85.10;;;;;;4933194;28;20122;-85
2021/03/29 02:35:32;;;;;;;11.27;3.65;;;8.50;85.00;;;;;;4939513;29;20023;-85
2021/03/29 02:37:58;;;;;;;13.52;5.30;;;8.50;85.00;;;;;;4931682;29;20456;-85
2021/03/29 02:40:25;;;;;;;14.23;5.10;;;8.40;85.00;;;;;;4936442;29;20070;-86
2021/03/29 02:42:54;;;;;;;11.57;5.28;;;8.40;85.00;;;;;;4951828;28;20050;-85
2021/03/29 02:45:22;;;;;;;13.40;6.05;;;8.40;85.00;;;;;;4936646;28;20027;-85
2021/03/29 02:47:48;;;;;;;15.60;5.82;;;8.30;85.00;;;;;;4952415;28;20027;-85
2021/03/29 02:50:20;;;;;;;19.27;7.03;;;8.40;85.00;;;;;;4947941;28;20019;-85
2021/03/29 02:52:52;;;;;;;21.80;7.20;;;8.40;85.00;;;;;;4947471;28;20028;-85
2021/03/29 02:55:19;;;;;;;19.73;7.68;;;8.30;84.90;;;;;;4933794;29;20050;-85
2021/03/29 02:57:47;;;;;;;17.90;7.80;;;8.30;84.90;;;;;;4949313;28;20027;-85
2021/03/29 03:00:18;;;;;;;17.73;8.02;;;8.30;85.00;;;;;;4951700;28;20023;-84
2021/03/29 03:02:44;;;;;;;16.92;8.00;;;8.20;85.10;;;;;;4933595;29;20039;-85
2021/03/29 03:05:12;;;;;;;22.67;7.85;;;8.20;85.10;;;;;;4948649;29;20062;-85
2021/03/29 03:07:39;;;;;;;25.73;7.80;;;8.20;85.20;;;;;;4941765;28;20027;-85
2021/03/29 03:10:09;;;;;;;16.85;7.78;;;8.20;85.10;;;;;;4931394;29;20472;-85
2021/03/29 03:12:36;;;;;;;17.73;7.35;;;8.20;85.20;;;;;;4938610;29;20086;-85
2021/03/29 03:15:04;;;;;;;24.08;8.65;;;8.20;85.20;;;;;;4933338;29;20027;-85
2021/03/29 03:17:33;;;;;;;15.10;6.97;;;8.20;85.30;;;;;;4933010;28;20035;-84
2021/03/29 03:19:59;;;;;;;19.02;7.70;;;8.20;85.30;;;;;;4926424;29;20063;-84
2021/03/29 03:22:24;;;;;;;21.42;7.13;;;8.20;85.30;;;;;;4935601;28;20061;-85
2021/03/29 03:24:50;;;;;;;15.25;5.78;;;8.20;85.20;;;;;;4954260;28;20126;-85
2021/03/29 03:27:15;;;;;;;16.15;6.28;;;8.20;85.10;;;;;;4935825;28;20144;-85
2021/03/29 03:29:42;;;;;;;12.05;5.28;;;8.30;85.10;;;;;;4950649;28;20543;-85
2021/03/29 03:32:12;;;;;;;15.43;5.18;;;8.30;85.10;;;;;;4933946;28;20051;-85
2021/03/29 03:34:38;;;;;;;12.07;5.13;;;8.30;85.00;;;;;;4931207;29;20118;-85
2021/03/29 03:37:06;;;;;;;10.15;4.43;;;8.30;85.00;;;;;;4935103;29;20504;-85
2021/03/29 03:39:32;;;;;;;18.30;4.82;;;8.30;84.90;;;;;;4942680;28;20114;-85
2021/03/29 03:41:58;;;;;;;11.93;3.50;;;8.30;84.80;;;;;;4937216;29;20054;-85
2021/03/29 03:44:24;;;;;;;11.52;4.40;;;8.30;84.80;;;;;;4932828;29;20036;-85
2021/03/29 03:46:51;;;;;;;14.75;4.57;;;8.20;84.80;;;;;;4952569;28;20034;-85
2021/03/29 03:49:22;;;;;;;11.55;4.00;;;8.20;84.90;;;;;;4948359;29;20515;-85
2021/03/29 03:51:49;;;;;;;9.13;3.08;;;8.30;84.90;;;;;;4944490;28;20166;-85
2021/03/29 03:54:17;;;;;;;9.90;4.10;;;8.20;84.80;;;;;;4951461;28;21696;-85
2021/03/29 03:56:43;;;;;;;9.18;3.17;;;8.20;84.80;;;;;;4935733;29;20356;-85
2021/03/29 03:59:09;;;;;;;13.57;3.78;;;8.20;84.90;;;;;;4934213;28;20034;-85
2021/03/29 04:01:51;;;;;;;9.95;3.15;;;8.30;85.00;;;;;;4947981;28;20129;-83
2021/03/29 04:04:17;;;;;;;9.80;3.25;;;8.30;84.80;;;;;;4931542;29;20395;-84
2021/03/29 04:06:43;;;;;;;9.93;2.47;;;8.30;84.80;;;;;;4952271;28;20039;-82
2021/03/29 04:09:08;;;;;;;7.88;2.55;;;8.30;84.80;;;;;;4950393;28;20472;-85
2021/03/29 04:11:36;;;;;;;9.98;3.05;;;8.30;84.90;;;;;;4936754;28;20023;-85
2021/03/29 04:14:02;;;;;;;10.95;3.17;;;8.30;84.80;;;;;;4951827;28;20035;-85
2021/03/29 04:16:27;;;;;;;13.15;3.20;;;8.30;84.80;;;;;;4933780;28;20110;-84
2021/03/29 04:18:53;;;;;;;11.10;2.63;;;8.30;84.80;;;;;;4951650;28;20473;-85
2021/03/29 04:21:18;;;;;;;10.07;3.25;;;8.30;84.90;;;;;;4939197;29;20051;-85
2021/03/29 04:23:44;;;;;;;9.55;2.42;;;8.40;84.80;;;;;;4936151;28;20436;-85
2021/03/29 04:26:09;;;;;;;11.23;3.47;;;8.40;84.70;;;;;;4939965;29;20028;-85
2021/03/29 04:28:35;;;;;;;10.00;2.97;;;8.50;84.70;;;;;;4936347;28;20031;-84
2021/03/29 04:31:00;;;;;;;12.68;2.75;;;8.50;84.60;;;;;;4937783;29;20031;-85
2021/03/29 04:33:26;;;;;;;11.30;2.58;;;8.40;84.50;;;;;;4949607;28;20031;-85
2021/03/29 04:35:52;;;;;;;11.10;2.78;;;8.50;84.60;;;;;;4941944;29;20273;-85
2021/03/29 04:38:18;;;;;;;11.10;2.47;;;8.50;84.50;;;;;;4936620;29;20031;-85
2021/03/29 04:40:43;;;;;;;7.07;2.35;;;8.50;84.50;;;;;;4938874;29;20143;-85
2021/03/29 04:43:09;;;;;;;15.23;2.40;;;8.50;84.40;;;;;;4955021;28;20039;-85
2021/03/29 04:45:35;;;;;;;7.82;2.70;;;8.50;84.30;;;;;;4940234;29;20015;-84
2021/03/29 04:48:00;;;;;;;9.05;2.58;;;8.60;84.30;;;;;;4933316;28;20595;-85
2021/03/29 04:50:26;;;;;;;9.30;2.55;;;8.50;84.30;;;;;;4952075;28;20046;-85
2021/03/29 04:52:52;;;;;;;8.52;2.47;;;8.50;84.30;;;;;;4935922;28;20035;-84
2021/03/29 04:55:19;;;;;;;9.95;2.28;;;8.50;84.30;;;;;;4950585;28;20054;-85
2021/03/29 04:57:44;;;;;;;7.28;2.35;;;8.50;84.40;;;;;;4948153;28;20614;-91
2021/03/29 05:00:12;;;;;;;10.77;2.72;;;8.50;84.70;;;;;;4932815;28;20063;-85
2021/03/29 05:02:38;;;;;;;10.38;2.20;;;8.40;84.40;;;;;;4935217;29;20034;-85
2021/03/29 05:05:05;;;;;;;14.07;2.38;;;8.40;84.40;;;;;;4937102;29;21690;-85
2021/03/29 05:07:31;;;;;;;9.10;2.33;;;8.40;84.40;;;;;;4934037;29;20027;-85
2021/03/29 05:09:56;;;;;;;14.05;3.03;;;8.40;84.40;;;;;;4946078;28;20133;-85
2021/03/29 05:12:24;;;;;;;11.13;2.42;;;8.40;84.50;;;;;;4936107;28;20024;-85
2021/03/29 05:14:51;;;;;;;6.80;1.90;;;8.30;84.50;;;;;;4956726;28;20131;-84
2021/03/29 05:17:17;;;;;;;10.98;2.60;;;8.30;84.60;;;;;;4952582;29;20038;-85
2021/03/29 05:19:43;;;;;;;9.52;2.05;;;8.30;84.70;;;;;;4957813;28;20086;-85
2021/03/29 05:22:09;;;;;;;10.52;2.08;;;8.30;84.70;;;;;;4939940;29;20019;-84
2021/03/29 05:24:35;;;;;;;8.70;2.10;;;8.30;84.70;;;;;;4955525;29;20035;-84
2021/03/29 05:27:01;;;;;;;9.70;2.60;;;8.20;84.60;;;;;;4942526;29;20114;-85
2021/03/29 05:29:40;;;;;;;8.57;1.92;;;8.20;84.70;;;;;;4959652;28;20035;-85
2021/03/29 05:32:12;;;;;;;8.57;2.10;;;8.20;84.80;;;;;;4949510;29;20019;-84
2021/03/29 05:34:38;;;;;;;8.20;2.08;;;8.30;84.90;;;;;;4940111;29;20111;-84
2021/03/29 05:37:04;;;;;;;16.55;2.85;;;8.30;84.90;;;;;;4951379;28;20118;-85
2021/03/29 05:39:30;;;;;;;10.70;2.33;;;8.40;84.90;;;;;;4940742;29;20183;-85
2021/03/29 05:41:55;;;;;;;11.55;2.20;;;8.40;84.80;;;;;;4941175;29;20038;-85
2021/03/29 05:44:22;;;;;;;4.55;1.60;;;8.40;84.80;;;;;;4955632;29;20381;-84
2021/03/29 05:46:48;;;;;;;10.40;2.10;;;8.50;84.80;;;;;;4956891;28;20075;-84
2021/03/29 05:49:14;;;;;;;9.30;2.00;;;8.50;84.80;;;;;;4941421;29;20031;-84
2021/03/29 05:51:40;;;;;;;10.95;1.90;;;8.60;84.70;;;;;;4941913;29;20046;-84
2021/03/29 05:54:07;;;;;;;7.20;1.80;;;8.70;84.50;;;;;;4927242;29;20032;-85
2021/03/29 05:56:34;;;;;;;9.55;1.83;;;8.70;84.30;;;;;;4921633;29;20027;-84
2021/03/29 06:01:41;;;;;;;9.75;1.95;;;8.80;84.10;;;;;;4955204;28;20114;-85
2021/03/29 06:04:07;;;;;;;7.45;1.70;;;8.90;84.00;;;;;;4952307;29;20039;-85
2021/03/29 06:06:33;;;;;;;14.55;2.50;;;8.90;84.00;;;;;;4939801;29;20134;-85
2021/03/29 06:08:58;;;;;;;11.48;2.75;;;8.90;83.80;;;;;;4956493;29;20098;-84
2021/03/29 06:11:39;;;;;;;10.15;1.75;;;9.00;83.80;;;;;;4939299;29;20031;-84
2021/03/29 06:14:16;;;;;;;7.05;1.98;;;9.00;83.70;;;;;;4935430;29;20131;-84
2021/03/29 06:16:56;;;;;;;10.55;2.35;;;9.00;83.50;;;;;;4950422;29;20070;-85
2021/03/29 06:19:43;;;;;;;9.52;2.25;;;9.10;83.50;;;;;;4940175;29;20483;-85
2021/03/29 06:22:26;;;;;;;8.60;2.30;;;9.10;83.40;;;;;;4939852;29;20062;-85
2021/03/29 06:24:57;;;;;;;10.13;1.65;;;9.10;83.30;;;;;;4927067;29;20032;-85
2021/03/29 06:27:25;;;;;;;18.52;1.95;;;9.10;83.20;;;;;;4939814;29;20035;-85
2021/03/29 06:30:22;;;;;;;6.72;2.42;;;9.20;83.20;;;;;;4948379;28;20027;-84
2021/03/29 06:32:59;;;;;;;9.43;1.58;;;9.20;83.20;;;;;;4941880;29;20100;-85
2021/03/29 06:35:49;;;;;;;10.48;1.90;;;9.20;83.20;;;;;;4939744;29;20027;-85
2021/03/29 06:38:28;;;;;;;9.02;1.83;;;9.30;83.20;;;;;;4941862;29;20027;-83
2021/03/29 06:41:02;;;;;;;6.90;1.40;;;9.40;82.80;;;;;;4953345;28;20030;-85
2021/03/29 06:43:32;;;;;;;6.95;1.83;;;9.40;82.60;;;;;;4936281;29;20392;-84
2021/03/29 06:46:00;;;;;;;7.40;1.88;;;9.30;82.50;;;;;;4922442;28;20023;-86
2021/03/29 06:48:37;;;;;;;6.72;2.00;;;9.40;82.60;;;;;;4949981;29;20035;-85
2021/03/29 06:51:29;;;;;;;10.60;1.83;;;9.40;82.50;;;;;;4934757;29;20546;-85
2021/03/29 06:54:07;;;;;;;6.85;1.65;;;9.40;82.50;;;;;;4923190;29;20046;-85
2021/03/29 06:56:39;;;;;;;13.20;1.83;;;9.50;82.40;;;;;;4937231;29;20404;-85
2021/03/29 06:59:04;;;;;;;5.82;1.40;;;9.60;82.20;;;;;;4934935;29;20036;-87
2021/03/29 07:01:31;;;;;;;9.93;1.98;;;9.60;82.10;;;;;;4942406;29;20082;-85
2021/03/29 07:03:57;;;;;;;8.57;1.60;;;9.60;82.00;;;;;;4937596;29;20042;-84
2021/03/29 07:06:28;;;;;;;8.52;1.85;;;9.70;81.90;;;;;;4949764;29;20051;-84
2021/03/29 07:09:03;;;;;;;8.50;2.00;;;9.70;81.90;;;;;;4955718;29;20127;-84
2021/03/29 07:11:28;;;;;;;12.63;2.15;;;9.80;81.80;;;;;;4934752;29;20094;-85
2021/03/29 07:13:56;;;;;;;11.77;2.38;;;9.80;81.50;;;;;;4938217;29;20062;-84
2021/03/29 07:16:27;;;;;;;6.55;1.75;;;9.90;81.40;;;;;;4938401;29;20039;-84
2021/03/29 07:18:56;;;;;;;7.05;1.80;;;10.00;81.20;;;;;;4949427;28;20035;-84
2021/03/29 07:21:22;;;;;;;7.93;2.22;;;10.10;80.80;;;;;;4950403;29;20471;-84
2021/03/29 07:23:48;;;;;;;9.15;2.10;;;10.20;80.70;;;;;;4937566;29;20027;-85
2021/03/29 07:26:27;;;;;;;8.70;2.30;;;10.30;80.50;;;;;;4938021;29;20027;-85
2021/03/29 07:28:54;;;;;;;8.15;2.20;;;10.40;80.50;;;;;;4936032;29;20083;-84
2021/03/29 07:31:41;;;;;;;9.65;2.17;;;10.50;80.20;;;;;;4936130;29;20031;-85
2021/03/29 07:34:07;;;;;;;12.63;2.33;;;10.60;80.00;;;;;;4954863;29;20031;-85
2021/03/29 07:36:51;;;;;;;11.20;1.92;;;10.60;79.60;;;;;;4938178;29;20074;-85
2021/03/29 07:39:21;;;;;;;4.53;1.67;;;10.70;79.60;;;;;;4938114;29;20122;-84
2021/03/29 07:41:47;;;;;;;11.75;2.47;;;10.80;80.00;;;;;;4941591;29;20027;-84
2021/03/29 07:44:13;;;;;;;8.50;2.25;;;10.80;78.90;;;;;;4949906;29;20035;-85
2021/03/29 07:46:42;;;;;;;13.35;2.35;;;10.90;78.90;;;;;;4940507;29;20079;-84
2021/03/29 07:49:42;;;;;;;13.65;2.75;;;11.00;78.80;;;;;;4937666;29;20031;-85
2021/03/29 07:52:28;;;;;;;11.32;2.00;;;11.10;78.40;;;;;;4955930;29;20058;-84
2021/03/29 07:54:55;;;;;;;8.88;2.13;;;11.10;78.20;;;;;;4952234;29;20024;-84
2021/03/29 07:57:46;;;;;;;5.95;1.77;;;11.20;78.30;;;;;;4948514;29;20484;-84
2021/03/29 08:00:26;;;;;;;11.25;2.25;;;11.20;77.70;;;;;;4954232;29;20032;-84
2021/03/29 08:02:56;;;;;;;12.20;2.63;;;11.30;77.80;;;;;;4939309;29;20047;-85
2021/03/29 08:05:42;;;;;;;4.65;1.80;;;11.40;77.70;;;;;;4933629;29;20400;-85
2021/03/29 08:08:26;;;;;;;8.57;1.80;;;11.50;77.80;;;;;;4945017;29;20484;-85
2021/03/29 08:11:12;;;;;;;7.13;1.85;;;11.50;77.80;;;;;;4938077;29;20070;-85
2021/03/29 08:13:49;;;;;;;7.22;1.73;;;11.60;77.50;;;;;;4934438;29;20483;-84
2021/03/29 08:16:22;;;;;;;9.70;1.73;;;11.70;77.70;;;;;;4953533;29;20522;-85
2021/03/29 08:19:20;;;;;;;7.75;2.13;;;11.80;77.10;;;;;;4952110;28;20035;-86
2021/03/29 08:22:14;;;;;;;6.80;1.45;;;11.90;76.80;;;;;;4953902;29;20023;-86
2021/03/29 08:24:46;;;;;;;9.70;2.05;;;12.10;76.60;;;;;;4953690;29;20526;-86
2021/03/29 08:27:14;;;;;;;12.57;1.70;;;12.10;76.10;;;;;;4937456;29;20452;-86
2021/03/29 08:29:44;;;;;;;8.77;2.20;;;12.20;75.60;;;;;;4932845;29;20028;-86
2021/03/29 08:32:15;;;;;;;6.88;1.80;;;12.30;75.10;;;;;;4947266;29;20058;-86
2021/03/29 08:35:04;;;;;;;10.30;1.88;;;12.40;74.60;;;;;;4938087;29;20391;-86
2021/03/29 08:37:35;;;;;;;9.40;1.75;;;12.40;74.10;;;;;;4948144;28;20035;-86
2021/03/29 08:40:21;;;;;;;7.65;1.75;;;12.50;74.20;;;;;;4954054;29;20035;-86
2021/03/29 08:42:49;;;;;;;8.63;1.52;;;12.50;73.50;;;;;;4954440;29;20106;-86
2021/03/29 08:45:17;;;;;;;6.55;1.40;;;12.70;73.40;;;;;;4944720;29;20130;-86
2021/03/29 08:47:45;;;;;;;9.38;1.98;;;12.80;73.20;;;;;;4955094;29;20444;-86
2021/03/29 08:50:12;;;;;;;7.95;1.42;;;12.80;72.20;;;;;;4956848;28;20027;-86
2021/03/29 08:52:43;;;;;;;6.07;1.75;;;12.90;71.90;;;;;;4952287;29;20052;-86
2021/03/29 08:55:10;;;;;;;5.15;0.98;;;13.10;71.30;;;;;;4954510;29;20086;-86
2021/03/29 08:57:37;;;;;;;6.88;1.55;;;13.20;71.50;;;;;;4941560;29;20031;-86
2021/03/29 09:00:16;;;;;;;6.25;1.40;;;13.30;69.90;;;;;;4944187;29;20427;-86
2021/03/29 09:02:42;;;;;;;7.63;1.08;;;13.30;68.60;;;;;;4953605;29;20085;-86
2021/03/29 09:05:10;;;;;;;14.25;1.92;;;13.30;69.20;;;;;;4942061;28;20392;-86
2021/03/29 09:07:43;;;;;;;4.45;1.13;;;13.50;69.00;;;;;;4943921;29;20019;-86
2021/03/29 09:10:21;;;;;;;5.40;1.33;;;13.60;68.10;;;;;;4959914;28;20471;-86
2021/03/29 09:12:54;;;;;;;9.25;1.40;;;13.70;67.20;;;;;;4961432;28;20031;-87
2021/03/29 09:15:20;;;;;;;8.00;1.88;;;13.70;67.00;;;;;;4930702;29;20483;-86
2021/03/29 09:17:55;;;;;;;10.52;1.60;;;13.90;67.30;;;;;;4959708;28;20102;-85
2021/03/29 09:20:23;;;;;;;5.90;1.15;;;14.00;67.10;;;;;;4940523;29;20030;-85
2021/03/29 09:22:49;;;;;;;6.55;1.33;;;14.10;65.10;;;;;;4956666;28;20039;-92
2021/03/29 09:25:43;;;;;;;10.10;1.40;;;14.10;63.40;;;;;;4937662;29;20031;-92
2021/03/29 09:29:00;;;;;;;7.63;1.50;;;14.20;64.20;;;;;;4935312;29;20043;-85
2021/03/29 09:31:23;;;;;;;7.20;1.33;;;14.30;63.40;;;;;;4949880;28;20130;-86
2021/03/29 09:33:51;;;;;;;6.03;1.20;;;14.30;62.10;;;;;;4931383;29;20492;-86
2021/03/29 09:36:19;;;;;;;6.35;1.38;;;14.40;61.10;;;;;;4924893;29;20027;-86
2021/03/29 09:38:52;;;;;;;4.35;1.25;;;14.40;61.10;;;;;;4940503;29;20046;-85
2021/03/29 09:41:24;;;;;;;4.18;1.40;;;14.50;61.80;;;;;;4940065;29;20031;-85
2021/03/29 09:43:53;;;;;;;6.88;1.17;;;14.60;60.30;;;;;;4955882;29;20407;-85
2021/03/29 09:46:27;;;;;;;6.75;1.27;;;14.70;60.60;;;;;;4940241;29;20027;-85
2021/03/29 09:49:14;;;;;;;5.90;1.25;;;14.80;60.40;;;;;;4940335;29;20031;-85
2021/03/29 09:51:41;;;;;;;7.93;1.00;;;14.90;59.70;;;;;;4940128;29;20079;-86
2021/03/29 09:54:24;;;;;;;6.78;1.50;;;14.90;59.50;;;;;;4937305;29;20035;-85
2021/03/29 09:56:50;;;;;;;3.88;1.23;;;15.10;58.80;;;;;;4939863;29;20503;-85
2021/03/29 09:59:35;;;;;;;4.07;0.95;;;15.10;57.50;;;;;;4937128;29;20027;-84
2021/03/29 10:02:16;;;;;;;5.88;1.30;;;15.20;57.70;;;;;;4933620;29;20027;-84
2021/03/29 10:04:43;;;;;;;9.18;1.17;;;15.20;57.40;;;;;;4931129;29;20118;-85
2021/03/29 10:07:17;;;;;;;7.63;1.33;;;15.30;55.60;;;;;;4935023;29;20507;-84
2021/03/29 10:09:47;;;;;;;5.32;1.15;;;15.30;55.20;;;;;;4937759;29;20042;-85
2021/03/29 10:12:27;;;;;;;5.00;0.90;;;15.30;55.50;;;;;;4936594;29;20032;-84
2021/03/29 10:15:09;;;;;;;5.90;1.10;;;15.50;55.80;;;;;;4934669;29;20087;-85
2021/03/29 10:17:35;;;;;;;8.63;1.55;;;15.50;55.80;;;;;;4946546;28;20117;-85
2021/03/29 10:20:08;;;;;;;8.23;1.52;;;15.60;55.50;;;;;;4936593;29;20099;-85
2021/03/29 10:22:34;;;;;;;3.60;1.00;;;15.70;55.10;;;;;;4936808;29;20031;-84
2021/03/29 10:25:05;;;;;;;11.18;1.42;;;15.60;54.20;;;;;;4939888;29;20134;-84
2021/03/29 10:27:53;;;;;;;5.47;1.02;;;15.60;54.10;;;;;;4934983;29;20110;-84
2021/03/29 10:30:19;;;;;;;5.60;1.52;;;15.70;54.80;;;;;;4929876;29;20050;-85
2021/03/29 10:32:55;;;;;;;6.68;1.38;;;15.80;55.10;;;;;;4938592;29;20016;-85
2021/03/29 10:35:23;;;;;;;5.63;1.08;;;15.80;54.10;;;;;;4953291;28;20034;-85
2021/03/29 10:37:49;;;;;;;6.93;1.27;;;15.90;54.20;;;;;;4936059;29;20144;-85
2021/03/29 10:40:15;;;;;;;5.38;1.48;;;15.90;53.90;;;;;;4943504;28;20032;-85
2021/03/29 10:42:42;;;;;;;4.20;1.08;;;15.90;54.10;;;;;;4942079;29;20436;-85
2021/03/29 10:45:10;;;;;;;4.72;1.17;;;16.00;53.80;;;;;;4935738;29;20032;-85
2021/03/29 10:47:36;;;;;;;6.65;1.38;;;16.00;54.20;;;;;;4921306;29;20035;-84
2021/03/29 10:50:03;;;;;;;4.28;1.00;;;16.10;53.60;;;;;;4951740;29;20075;-85
2021/03/29 10:52:29;;;;;;;5.68;0.93;;;16.20;53.40;;;;;;4937883;29;20033;-85
2021/03/29 10:54:55;;;;;;;5.22;1.40;;;16.20;52.60;;;;;;4928893;29;20031;-85
2021/03/29 10:57:20;;;;;;;7.03;1.48;;;16.30;52.50;;;;;;4938529;29;20027;-85
2021/03/29 10:59:46;;;;;;;7.00;1.05;;;16.30;53.00;;;;;;4938052;29;20020;-85
2021/03/29 11:02:12;;;;;;;8.90;1.48;;;16.40;52.40;;;;;;4952238;28;20028;-85
2021/03/29 11:04:37;;;;;;;6.13;1.08;;;16.40;52.30;;;;;;4951168;28;20404;-84
2021/03/29 11:07:03;;;;;;;5.90;1.30;;;16.50;52.50;;;;;;4938514;29;20058;-85
2021/03/29 11:09:29;;;;;;;6.22;1.10;;;16.60;52.50;;;;;;4938219;29;20451;-85
2021/03/29 11:11:55;;;;;;;6.40;1.35;;;16.70;52.70;;;;;;4944338;29;20023;-84
2021/03/29 11:14:22;;;;;;;10.27;1.98;;;16.90;51.60;;;;;;4937737;29;20067;-84
2021/03/29 11:16:53;;;;;;;7.72;1.13;;;16.90;50.80;;;;;;4938197;29;20458;-85
2021/03/29 11:19:20;;;;;;;7.80;1.42;;;16.90;51.00;;;;;;4954261;29;20468;-85
2021/03/29 11:21:46;;;;;;;2.70;0.70;;;17.00;50.90;;;;;;4944334;29;20122;-85
2021/03/29 11:24:12;;;;;;;8.15;1.10;;;17.10;51.20;;;;;;4930403;29;20555;-84
2021/03/29 11:26:39;;;;;;;5.80;1.13;;;17.10;50.80;;;;;;4937157;28;20064;-85
2021/03/29 11:29:04;;;;;;;4.28;1.00;;;17.20;51.20;;;;;;4938234;29;20038;-85
2021/03/29 11:31:30;;;;;;;9.68;1.48;;;17.30;50.90;;;;;;4938909;29;20031;-85
2021/03/29 11:33:56;;;;;;;5.15;1.42;;;17.30;49.30;;;;;;4954760;29;20027;-85
2021/03/29 11:36:21;;;;;;;7.53;1.13;;;17.30;49.00;;;;;;4946669;29;20083;-84
2021/03/29 11:38:47;;;;;;;5.32;1.60;;;17.30;48.50;;;;;;4937171;29;20038;-85
2021/03/29 11:41:14;;;;;;;7.68;1.20;;;17.40;48.00;;;;;;4947702;29;20118;-84
2021/03/29 11:43:40;;;;;;;5.45;1.25;;;17.30;47.90;;;;;;4934569;29;20043;-85
2021/03/29 11:46:06;;;;;;;7.97;1.33;;;17.40;47.00;;;;;;4938402;29;20051;-84
2021/03/29 11:48:32;;;;;;;6.40;1.40;;;17.40;46.20;;;;;;4953952;29;20034;-84
2021/03/29 11:50:57;;;;;;;6.43;1.00;;;17.50;46.00;;;;;;4937432;29;20050;-84
2021/03/29 11:53:23;;;;;;;4.32;0.90;;;17.50;46.20;;;;;;4953874;29;20031;-85
2021/03/29 11:55:50;;;;;;;6.30;1.27;;;17.60;45.80;;;;;;4934562;29;20480;-87
2021/03/29 11:58:15;;;;;;;4.07;0.95;;;17.60;45.90;;;;;;4937914;29;20110;-88
2021/03/29 12:06:05;;;;;;;8.80;1.10;;;17.90;44.80;;;;;;4948816;28;20110;-85
2021/03/29 12:08:40;;;;;;;4.70;1.02;;;18.00;44.40;;;;;;4936392;29;20428;-86
2021/03/29 12:13:52;;;;;;;5.38;1.30;;;18.20;44.20;;;;;;4955068;28;20439;-83
2021/03/29 12:16:20;;;;;;;3.28;1.05;;;18.20;43.70;;;;;;4938035;29;20055;-85
2021/03/29 12:18:49;;;;;;;6.93;1.35;;;18.30;43.60;;;;;;4942376;29;20075;-84
2021/03/29 12:21:18;;;;;;;3.03;0.80;;;18.40;43.80;;;;;;4935202;29;20466;-84
2021/03/29 12:23:46;;;;;;;7.60;1.00;;;18.50;43.80;;;;;;4934301;29;20186;-84
2021/03/29 12:26:12;;;;;;;5.57;1.52;;;18.50;43.50;;;;;;4937741;29;20023;-84
2021/03/29 12:28:43;;;;;;;6.25;1.30;;;18.60;43.10;;;;;;4937463;29;20094;-84
2021/03/29 12:31:10;;;;;;;6.28;1.58;;;18.60;43.60;;;;;;4959336;28;20039;-84
2021/03/29 12:33:35;;;;;;;4.82;1.02;;;18.70;42.90;;;;;;4952336;29;20035;-84
2021/03/29 12:36:02;;;;;;;5.10;1.65;;;18.80;43.30;;;;;;4940596;29;20016;-85
2021/03/29 12:38:32;;;;;;;7.30;1.35;;;18.80;43.30;;;;;;4941593;28;20106;-85
2021/03/29 12:41:00;;;;;;;4.65;0.93;;;18.90;43.40;;;;;;4951900;29;20030;-85
2021/03/29 12:43:40;;;;;;;4.30;1.13;;;19.00;43.00;;;;;;4954335;29;20177;-85
2021/03/29 12:46:07;;;;;;;4.30;1.00;;;19.00;41.40;;;;;;4941251;29;20488;-85
2021/03/29 12:48:35;;;;;;;6.03;1.17;;;19.00;41.70;;;;;;4935451;29;20031;-85
2021/03/29 12:51:03;;;;;;;8.23;1.33;;;19.00;41.40;;;;;;4957460;29;20122;-85
2021/03/29 12:53:29;;;;;;;5.03;0.85;;;19.00;40.50;;;;;;4941401;29;20115;-85
2021/03/29 12:55:56;;;;;;;4.78;1.48;;;19.10;41.10;;;;;;4943686;29;20114;-85
2021/03/29 12:58:21;;;;;;;5.10;1.33;;;19.20;40.60;;;;;;4956803;29;20042;-85
2021/03/29 13:00:48;;;;;;;3.60;1.20;;;19.20;40.70;;;;;;4940517;29;20027;-85
2021/03/29 13:03:14;;;;;;;8.13;1.20;;;19.30;39.40;;;;;;4935945;29;20095;-85
2021/03/29 13:05:57;;;;;;;5.35;1.10;;;19.30;38.80;;;;;;4940562;29;20049;-85
2021/03/29 13:08:27;;;;;;;;;;;19.30;38.70;;;;;;4947449;29;20031;-85
2021/03/29 13:13:31;;;;;;;7.57;0.98;;;19.40;39.50;;;;;;4957271;29;20024;-85
2021/03/29 13:15:56;;;;;;;5.32;1.23;;;19.50;38.80;;;;;;4940816;29;20050;-86